sensor_id;sensor_type;location;lat;lon;timestamp;P1;durP1;ratioP1;P2;durP2;ratioP2
35891;SDS011;21993;42.672;23.296;2023-08-17T00:00:16;7.57;;;5.40;;
35891;SDS011;21993;42.672;23.296;2023-08-17T00:02:43;7.53;;;4.90;;
35891;SDS011;21993;42.672;23.296;2023-08-17T00:05:09;7.27;;;5.20;;
35891;SDS011;21993;42.672;23.296;2023-08-17T00:07:34;7.97;;;4.67;;
35891;SDS011;21993;42.672;23.296;2023-08-17T00:10:00;8.87;;;5.17;;
35891;SDS011;21993;42.672;23.296;2023-08-17T00:12:26;5.73;;;5.13;;
35891;SDS011;21993;42.672;23.296;2023-08-17T00:14:52;5.57;;;4.60;;
35891;SDS011;21993;42.672;23.296;2023-08-17T00:17:18;9.37;;;5.10;;
35891;SDS011;21993;42.672;23.296;2023-08-17T00:19:43;9.27;;;5.80;;
35891;SDS011;21993;42.672;23.296;2023-08-17T00:22:09;7.70;;;5.00;;
35891;SDS011;21993;42.672;23.296;2023-08-17T00:24:34;7.50;;;5.10;;
35891;SDS011;21993;42.672;23.296;2023-08-17T00:26:59;6.40;;;5.20;;
35891;SDS011;21993;42.672;23.296;2023-08-17T00:29:25;6.97;;;4.90;;
35891;SDS011;21993;42.672;23.296;2023-08-17T00:31:50;6.40;;;4.80;;
35891;SDS011;21993;42.672;23.296;2023-08-17T00:34:17;6.00;;;4.63;;
35891;SDS011;21993;42.672;23.296;2023-08-17T00:36:43;7.47;;;5.07;;
35891;SDS011;21993;42.672;23.296;2023-08-17T00:39:08;8.10;;;4.87;;
35891;SDS011;21993;42.672;23.296;2023-08-17T00:41:33;6.70;;;4.10;;
35891;SDS011;21993;42.672;23.296;2023-08-17T00:43:59;8.50;;;4.47;;
35891;SDS011;21993;42.672;23.296;2023-08-17T00:46:25;5.23;;;4.73;;
35891;SDS011;21993;42.672;23.296;2023-08-17T00:48:51;8.73;;;4.40;;
35891;SDS011;21993;42.672;23.296;2023-08-17T00:51:19;7.03;;;4.57;;
35891;SDS011;21993;42.672;23.296;2023-08-17T00:53:48;5.87;;;4.37;;
35891;SDS011;21993;42.672;23.296;2023-08-17T00:56:15;7.00;;;4.03;;
35891;SDS011;21993;42.672;23.296;2023-08-17T00:58:41;5.90;;;4.83;;
35891;SDS011;21993;42.672;23.296;2023-08-17T01:01:07;5.30;;;4.20;;
35891;SDS011;21993;42.672;23.296;2023-08-17T01:03:33;6.90;;;4.03;;
35891;SDS011;21993;42.672;23.296;2023-08-17T01:05:59;4.20;;;3.80;;
35891;SDS011;21993;42.672;23.296;2023-08-17T01:08:27;4.60;;;3.67;;
35891;SDS011;21993;42.672;23.296;2023-08-17T01:10:59;7.67;;;3.93;;
35891;SDS011;21993;42.672;23.296;2023-08-17T01:13:34;7.43;;;3.77;;
35891;SDS011;21993;42.672;23.296;2023-08-17T01:16:04;5.23;;;3.60;;
35891;SDS011;21993;42.672;23.296;2023-08-17T01:18:35;7.80;;;3.73;;
35891;SDS011;21993;42.672;23.296;2023-08-17T01:21:02;5.33;;;3.50;;
35891;SDS011;21993;42.672;23.296;2023-08-17T01:23:31;7.60;;;3.10;;
35891;SDS011;21993;42.672;23.296;2023-08-17T01:25:57;5.73;;;3.73;;
35891;SDS011;21993;42.672;23.296;2023-08-17T01:28:22;7.83;;;4.80;;
35891;SDS011;21993;42.672;23.296;2023-08-17T01:33:44;6.30;;;3.13;;
35891;SDS011;21993;42.672;23.296;2023-08-17T01:36:19;3.40;;;3.10;;
35891;SDS011;21993;42.672;23.296;2023-08-17T01:38:49;6.20;;;3.60;;
35891;SDS011;21993;42.672;23.296;2023-08-17T01:41:16;7.37;;;3.50;;
35891;SDS011;21993;42.672;23.296;2023-08-17T01:43:42;4.23;;;3.00;;
35891;SDS011;21993;42.672;23.296;2023-08-17T01:46:12;7.57;;;3.20;;
35891;SDS011;21993;42.672;23.296;2023-08-17T01:48:40;5.50;;;2.90;;
35891;SDS011;21993;42.672;23.296;2023-08-17T01:51:06;4.87;;;3.47;;
35891;SDS011;21993;42.672;23.296;2023-08-17T01:53:31;6.30;;;3.43;;
35891;SDS011;21993;42.672;23.296;2023-08-17T01:55:57;3.83;;;3.10;;
35891;SDS011;21993;42.672;23.296;2023-08-17T01:58:22;3.80;;;3.10;;
35891;SDS011;21993;42.672;23.296;2023-08-17T02:00:47;4.30;;;3.27;;
35891;SDS011;21993;42.672;23.296;2023-08-17T02:03:13;3.93;;;3.07;;
35891;SDS011;21993;42.672;23.296;2023-08-17T02:05:38;4.87;;;3.50;;
35891;SDS011;21993;42.672;23.296;2023-08-17T02:08:04;8.70;;;3.50;;
35891;SDS011;21993;42.672;23.296;2023-08-17T02:10:29;4.00;;;3.10;;
35891;SDS011;21993;42.672;23.296;2023-08-17T02:12:55;5.73;;;3.17;;
35891;SDS011;21993;42.672;23.296;2023-08-17T02:15:20;4.70;;;3.50;;
35891;SDS011;21993;42.672;23.296;2023-08-17T02:17:45;4.47;;;2.80;;
35891;SDS011;21993;42.672;23.296;2023-08-17T02:20:11;3.30;;;2.90;;
35891;SDS011;21993;42.672;23.296;2023-08-17T02:22:36;4.77;;;3.40;;
35891;SDS011;21993;42.672;23.296;2023-08-17T02:25:01;3.30;;;3.00;;
35891;SDS011;21993;42.672;23.296;2023-08-17T02:27:27;3.73;;;3.20;;
35891;SDS011;21993;42.672;23.296;2023-08-17T02:29:56;5.50;;;3.03;;
35891;SDS011;21993;42.672;23.296;2023-08-17T02:32:21;9.13;;;3.40;;
35891;SDS011;21993;42.672;23.296;2023-08-17T02:34:46;5.03;;;3.40;;
35891;SDS011;21993;42.672;23.296;2023-08-17T02:37:12;4.30;;;3.27;;
35891;SDS011;21993;42.672;23.296;2023-08-17T02:39:37;8.30;;;3.47;;
35891;SDS011;21993;42.672;23.296;2023-08-17T02:42:03;9.47;;;3.90;;
35891;SDS011;21993;42.672;23.296;2023-08-17T02:44:28;4.20;;;3.50;;
35891;SDS011;21993;42.672;23.296;2023-08-17T02:46:54;6.83;;;2.97;;
35891;SDS011;21993;42.672;23.296;2023-08-17T02:49:19;3.57;;;3.13;;
35891;SDS011;21993;42.672;23.296;2023-08-17T02:51:45;3.60;;;3.30;;
35891;SDS011;21993;42.672;23.296;2023-08-17T02:54:10;6.33;;;3.83;;
35891;SDS011;21993;42.672;23.296;2023-08-17T02:56:36;5.10;;;3.13;;
35891;SDS011;21993;42.672;23.296;2023-08-17T02:59:01;4.23;;;3.20;;
35891;SDS011;21993;42.672;23.296;2023-08-17T03:01:26;4.10;;;2.90;;
35891;SDS011;21993;42.672;23.296;2023-08-17T03:03:52;4.03;;;3.10;;
35891;SDS011;21993;42.672;23.296;2023-08-17T03:06:17;7.33;;;3.40;;
35891;SDS011;21993;42.672;23.296;2023-08-17T03:08:43;4.07;;;3.53;;
35891;SDS011;21993;42.672;23.296;2023-08-17T03:11:08;4.13;;;3.50;;
35891;SDS011;21993;42.672;23.296;2023-08-17T03:13:35;3.67;;;3.30;;
35891;SDS011;21993;42.672;23.296;2023-08-17T03:16:00;5.40;;;3.30;;
35891;SDS011;21993;42.672;23.296;2023-08-17T03:18:25;5.73;;;3.23;;
35891;SDS011;21993;42.672;23.296;2023-08-17T03:20:51;5.60;;;2.87;;
35891;SDS011;21993;42.672;23.296;2023-08-17T03:23:16;3.73;;;3.37;;
35891;SDS011;21993;42.672;23.296;2023-08-17T03:25:41;3.50;;;3.00;;
35891;SDS011;21993;42.672;23.296;2023-08-17T03:28:07;5.67;;;3.30;;
35891;SDS011;21993;42.672;23.296;2023-08-17T03:30:32;5.63;;;3.40;;
35891;SDS011;21993;42.672;23.296;2023-08-17T03:32:58;4.87;;;4.20;;
35891;SDS011;21993;42.672;23.296;2023-08-17T03:35:23;5.13;;;3.30;;
35891;SDS011;21993;42.672;23.296;2023-08-17T03:37:49;4.87;;;3.10;;
35891;SDS011;21993;42.672;23.296;2023-08-17T03:40:14;5.03;;;3.40;;
35891;SDS011;21993;42.672;23.296;2023-08-17T03:42:39;4.37;;;3.50;;
35891;SDS011;21993;42.672;23.296;2023-08-17T03:45:06;6.97;;;3.20;;
35891;SDS011;21993;42.672;23.296;2023-08-17T03:47:32;6.53;;;3.40;;
35891;SDS011;21993;42.672;23.296;2023-08-17T03:49:57;5.07;;;3.20;;
35891;SDS011;21993;42.672;23.296;2023-08-17T03:52:23;5.97;;;3.40;;
35891;SDS011;21993;42.672;23.296;2023-08-17T03:54:48;5.93;;;3.20;;
35891;SDS011;21993;42.672;23.296;2023-08-17T03:57:13;3.47;;;2.77;;
35891;SDS011;21993;42.672;23.296;2023-08-17T03:59:39;6.43;;;3.20;;
35891;SDS011;21993;42.672;23.296;2023-08-17T04:02:05;6.20;;;3.73;;
35891;SDS011;21993;42.672;23.296;2023-08-17T04:04:31;8.13;;;3.33;;
35891;SDS011;21993;42.672;23.296;2023-08-17T04:06:57;6.67;;;3.17;;
35891;SDS011;21993;42.672;23.296;2023-08-17T04:09:22;3.83;;;3.37;;
35891;SDS011;21993;42.672;23.296;2023-08-17T04:11:47;4.07;;;3.33;;
35891;SDS011;21993;42.672;23.296;2023-08-17T04:14:13;9.10;;;3.60;;
35891;SDS011;21993;42.672;23.296;2023-08-17T04:16:39;6.63;;;3.20;;
35891;SDS011;21993;42.672;23.296;2023-08-17T04:19:04;5.47;;;2.97;;
35891;SDS011;21993;42.672;23.296;2023-08-17T04:21:30;5.87;;;3.00;;
35891;SDS011;21993;42.672;23.296;2023-08-17T04:23:55;3.47;;;3.17;;
35891;SDS011;21993;42.672;23.296;2023-08-17T04:26:21;4.53;;;3.30;;
35891;SDS011;21993;42.672;23.296;2023-08-17T04:28:46;4.13;;;3.03;;
35891;SDS011;21993;42.672;23.296;2023-08-17T04:31:12;7.73;;;4.03;;
35891;SDS011;21993;42.672;23.296;2023-08-17T04:33:37;9.30;;;4.13;;
35891;SDS011;21993;42.672;23.296;2023-08-17T04:36:02;8.47;;;4.23;;
35891;SDS011;21993;42.672;23.296;2023-08-17T04:38:28;6.97;;;4.20;;
35891;SDS011;21993;42.672;23.296;2023-08-17T04:40:53;6.40;;;3.57;;
35891;SDS011;21993;42.672;23.296;2023-08-17T04:43:19;8.03;;;3.27;;
35891;SDS011;21993;42.672;23.296;2023-08-17T04:45:44;7.77;;;3.63;;
35891;SDS011;21993;42.672;23.296;2023-08-17T04:48:12;5.80;;;4.10;;
35891;SDS011;21993;42.672;23.296;2023-08-17T04:50:38;5.07;;;3.80;;
35891;SDS011;21993;42.672;23.296;2023-08-17T04:53:04;8.03;;;3.80;;
35891;SDS011;21993;42.672;23.296;2023-08-17T04:55:29;6.23;;;3.53;;
35891;SDS011;21993;42.672;23.296;2023-08-17T04:57:56;6.67;;;4.00;;
35891;SDS011;21993;42.672;23.296;2023-08-17T05:00:22;5.97;;;3.50;;
35891;SDS011;21993;42.672;23.296;2023-08-17T05:02:52;4.90;;;3.67;;
35891;SDS011;21993;42.672;23.296;2023-08-17T05:05:18;12.00;;;4.20;;
35891;SDS011;21993;42.672;23.296;2023-08-17T05:07:43;5.80;;;4.10;;
35891;SDS011;21993;42.672;23.296;2023-08-17T05:10:09;6.70;;;4.33;;
35891;SDS011;21993;42.672;23.296;2023-08-17T05:12:34;5.90;;;4.00;;
35891;SDS011;21993;42.672;23.296;2023-08-17T05:15:00;6.47;;;3.80;;
35891;SDS011;21993;42.672;23.296;2023-08-17T05:17:25;7.23;;;4.17;;
35891;SDS011;21993;42.672;23.296;2023-08-17T05:19:50;5.00;;;4.23;;
35891;SDS011;21993;42.672;23.296;2023-08-17T05:22:16;9.60;;;4.23;;
35891;SDS011;21993;42.672;23.296;2023-08-17T05:24:42;10.77;;;6.40;;
35891;SDS011;21993;42.672;23.296;2023-08-17T05:27:07;5.87;;;4.93;;
35891;SDS011;21993;42.672;23.296;2023-08-17T05:29:33;6.20;;;4.50;;
35891;SDS011;21993;42.672;23.296;2023-08-17T05:31:58;11.30;;;4.43;;
35891;SDS011;21993;42.672;23.296;2023-08-17T05:34:24;7.40;;;4.60;;
35891;SDS011;21993;42.672;23.296;2023-08-17T05:36:49;5.43;;;4.10;;
35891;SDS011;21993;42.672;23.296;2023-08-17T05:39:15;7.77;;;4.33;;
35891;SDS011;21993;42.672;23.296;2023-08-17T05:41:40;6.00;;;4.13;;
35891;SDS011;21993;42.672;23.296;2023-08-17T05:44:06;5.47;;;4.33;;
35891;SDS011;21993;42.672;23.296;2023-08-17T05:46:32;8.57;;;4.90;;
35891;SDS011;21993;42.672;23.296;2023-08-17T05:48:58;5.03;;;4.17;;
35891;SDS011;21993;42.672;23.296;2023-08-17T05:51:24;8.17;;;4.67;;
35891;SDS011;21993;42.672;23.296;2023-08-17T05:53:49;5.10;;;3.73;;
35891;SDS011;21993;42.672;23.296;2023-08-17T05:56:15;5.40;;;4.00;;
35891;SDS011;21993;42.672;23.296;2023-08-17T05:58:40;7.10;;;3.70;;
35891;SDS011;21993;42.672;23.296;2023-08-17T06:01:06;7.57;;;3.60;;
35891;SDS011;21993;42.672;23.296;2023-08-17T06:03:33;5.20;;;3.40;;
35891;SDS011;21993;42.672;23.296;2023-08-17T06:05:59;5.27;;;3.77;;
35891;SDS011;21993;42.672;23.296;2023-08-17T06:08:24;6.33;;;3.47;;
35891;SDS011;21993;42.672;23.296;2023-08-17T06:10:50;6.07;;;3.40;;
35891;SDS011;21993;42.672;23.296;2023-08-17T06:13:15;9.33;;;3.60;;
35891;SDS011;21993;42.672;23.296;2023-08-17T06:15:40;6.80;;;3.83;;
35891;SDS011;21993;42.672;23.296;2023-08-17T06:18:06;7.43;;;4.00;;
35891;SDS011;21993;42.672;23.296;2023-08-17T06:20:31;3.83;;;3.30;;
35891;SDS011;21993;42.672;23.296;2023-08-17T06:22:57;6.17;;;4.10;;
35891;SDS011;21993;42.672;23.296;2023-08-17T06:25:22;5.63;;;3.90;;
35891;SDS011;21993;42.672;23.296;2023-08-17T06:27:51;5.87;;;3.80;;
35891;SDS011;21993;42.672;23.296;2023-08-17T06:30:16;11.43;;;5.03;;
35891;SDS011;21993;42.672;23.296;2023-08-17T06:32:42;7.63;;;4.57;;
35891;SDS011;21993;42.672;23.296;2023-08-17T06:35:08;5.03;;;4.20;;
35891;SDS011;21993;42.672;23.296;2023-08-17T06:37:34;8.40;;;4.93;;
35891;SDS011;21993;42.672;23.296;2023-08-17T06:39:59;9.57;;;5.07;;
35891;SDS011;21993;42.672;23.296;2023-08-17T06:42:25;9.93;;;4.63;;
35891;SDS011;21993;42.672;23.296;2023-08-17T06:44:50;7.17;;;4.03;;
35891;SDS011;21993;42.672;23.296;2023-08-17T06:47:16;9.77;;;4.67;;
35891;SDS011;21993;42.672;23.296;2023-08-17T06:49:41;7.67;;;4.20;;
35891;SDS011;21993;42.672;23.296;2023-08-17T06:52:07;7.30;;;4.60;;
35891;SDS011;21993;42.672;23.296;2023-08-17T06:54:32;6.20;;;4.30;;
35891;SDS011;21993;42.672;23.296;2023-08-17T06:56:58;4.77;;;3.83;;
35891;SDS011;21993;42.672;23.296;2023-08-17T06:59:23;8.37;;;4.37;;
35891;SDS011;21993;42.672;23.296;2023-08-17T07:01:49;5.60;;;3.90;;
35891;SDS011;21993;42.672;23.296;2023-08-17T07:04:14;4.63;;;4.07;;
35891;SDS011;21993;42.672;23.296;2023-08-17T07:06:39;7.20;;;3.80;;
35891;SDS011;21993;42.672;23.296;2023-08-17T07:09:06;6.97;;;4.50;;
35891;SDS011;21993;42.672;23.296;2023-08-17T07:11:31;4.27;;;3.87;;
35891;SDS011;21993;42.672;23.296;2023-08-17T07:13:57;7.07;;;4.00;;
35891;SDS011;21993;42.672;23.296;2023-08-17T07:16:23;6.30;;;4.00;;
35891;SDS011;21993;42.672;23.296;2023-08-17T07:18:48;4.37;;;3.97;;
35891;SDS011;21993;42.672;23.296;2023-08-17T07:21:14;3.97;;;3.57;;
35891;SDS011;21993;42.672;23.296;2023-08-17T07:23:39;4.57;;;3.70;;
35891;SDS011;21993;42.672;23.296;2023-08-17T07:26:08;5.80;;;3.33;;
35891;SDS011;21993;42.672;23.296;2023-08-17T07:28:34;11.17;;;7.77;;
35891;SDS011;21993;42.672;23.296;2023-08-17T07:30:59;6.83;;;3.67;;
35891;SDS011;21993;42.672;23.296;2023-08-17T07:33:24;3.77;;;3.37;;
35891;SDS011;21993;42.672;23.296;2023-08-17T07:35:50;7.47;;;3.40;;
35891;SDS011;21993;42.672;23.296;2023-08-17T07:38:15;5.23;;;3.23;;
35891;SDS011;21993;42.672;23.296;2023-08-17T07:40:41;6.77;;;3.70;;
35891;SDS011;21993;42.672;23.296;2023-08-17T07:43:08;3.40;;;3.10;;
35891;SDS011;21993;42.672;23.296;2023-08-17T07:45:33;4.13;;;3.53;;
35891;SDS011;21993;42.672;23.296;2023-08-17T07:47:59;8.30;;;3.50;;
35891;SDS011;21993;42.672;23.296;2023-08-17T07:50:24;6.07;;;3.27;;
35891;SDS011;21993;42.672;23.296;2023-08-17T07:52:49;6.33;;;3.63;;
35891;SDS011;21993;42.672;23.296;2023-08-17T07:55:15;5.67;;;4.00;;
35891;SDS011;21993;42.672;23.296;2023-08-17T07:57:40;3.87;;;3.40;;
35891;SDS011;21993;42.672;23.296;2023-08-17T08:00:06;5.00;;;3.43;;
35891;SDS011;21993;42.672;23.296;2023-08-17T08:02:31;4.80;;;3.67;;
35891;SDS011;21993;42.672;23.296;2023-08-17T08:04:57;9.70;;;4.20;;
35891;SDS011;21993;42.672;23.296;2023-08-17T08:07:22;6.03;;;3.50;;
35891;SDS011;21993;42.672;23.296;2023-08-17T08:09:48;4.00;;;3.60;;
35891;SDS011;21993;42.672;23.296;2023-08-17T08:12:13;7.23;;;3.53;;
35891;SDS011;21993;42.672;23.296;2023-08-17T08:14:38;5.03;;;3.77;;
35891;SDS011;21993;42.672;23.296;2023-08-17T08:17:04;4.47;;;3.07;;
35891;SDS011;21993;42.672;23.296;2023-08-17T08:19:29;5.43;;;3.60;;
35891;SDS011;21993;42.672;23.296;2023-08-17T08:21:54;5.13;;;3.33;;
35891;SDS011;21993;42.672;23.296;2023-08-17T08:24:20;4.67;;;3.50;;
35891;SDS011;21993;42.672;23.296;2023-08-17T08:26:45;4.63;;;3.67;;
35891;SDS011;21993;42.672;23.296;2023-08-17T08:29:11;5.83;;;3.43;;
35891;SDS011;21993;42.672;23.296;2023-08-17T08:31:36;8.57;;;3.70;;
35891;SDS011;21993;42.672;23.296;2023-08-17T08:34:01;4.60;;;3.30;;
35891;SDS011;21993;42.672;23.296;2023-08-17T08:36:27;5.43;;;3.20;;
35891;SDS011;21993;42.672;23.296;2023-08-17T08:38:52;6.37;;;3.10;;
35891;SDS011;21993;42.672;23.296;2023-08-17T08:41:18;4.07;;;3.60;;
35891;SDS011;21993;42.672;23.296;2023-08-17T08:43:44;5.90;;;3.47;;
35891;SDS011;21993;42.672;23.296;2023-08-17T08:46:10;5.63;;;3.50;;
35891;SDS011;21993;42.672;23.296;2023-08-17T08:48:36;4.43;;;4.03;;
35891;SDS011;21993;42.672;23.296;2023-08-17T08:51:04;6.60;;;3.97;;
35891;SDS011;21993;42.672;23.296;2023-08-17T08:53:39;3.80;;;3.40;;
35891;SDS011;21993;42.672;23.296;2023-08-17T08:56:13;4.03;;;3.40;;
35891;SDS011;21993;42.672;23.296;2023-08-17T08:58:43;6.17;;;3.57;;
35891;SDS011;21993;42.672;23.296;2023-08-17T09:01:10;4.03;;;3.43;;
35891;SDS011;21993;42.672;23.296;2023-08-17T09:03:37;5.43;;;3.90;;
35891;SDS011;21993;42.672;23.296;2023-08-17T09:06:03;6.73;;;4.93;;
35891;SDS011;21993;42.672;23.296;2023-08-17T09:08:29;5.20;;;3.97;;
35891;SDS011;21993;42.672;23.296;2023-08-17T09:10:55;4.27;;;3.53;;
35891;SDS011;21993;42.672;23.296;2023-08-17T09:13:21;4.57;;;3.50;;
35891;SDS011;21993;42.672;23.296;2023-08-17T09:15:46;4.30;;;3.30;;
35891;SDS011;21993;42.672;23.296;2023-08-17T09:18:12;3.90;;;3.60;;
35891;SDS011;21993;42.672;23.296;2023-08-17T09:23:04;6.13;;;3.43;;
35891;SDS011;21993;42.672;23.296;2023-08-17T09:25:37;3.67;;;3.37;;
35891;SDS011;21993;42.672;23.296;2023-08-17T09:28:07;5.73;;;3.83;;
35891;SDS011;21993;42.672;23.296;2023-08-17T09:30:43;4.67;;;3.43;;
35891;SDS011;21993;42.672;23.296;2023-08-17T09:33:34;3.93;;;3.43;;
35891;SDS011;21993;42.672;23.296;2023-08-17T09:36:00;6.53;;;3.60;;
35891;SDS011;21993;42.672;23.296;2023-08-17T09:38:26;4.43;;;3.10;;
35891;SDS011;21993;42.672;23.296;2023-08-17T09:40:52;5.40;;;3.70;;
35891;SDS011;21993;42.672;23.296;2023-08-17T09:43:18;6.00;;;3.13;;
35891;SDS011;21993;42.672;23.296;2023-08-17T09:45:45;4.03;;;3.17;;
35891;SDS011;21993;42.672;23.296;2023-08-17T09:48:13;3.90;;;3.20;;
35891;SDS011;21993;42.672;23.296;2023-08-17T09:50:43;3.80;;;2.90;;
35891;SDS011;21993;42.672;23.296;2023-08-17T09:53:15;5.33;;;2.90;;
35891;SDS011;21993;42.672;23.296;2023-08-17T09:55:42;4.63;;;2.97;;
35891;SDS011;21993;42.672;23.296;2023-08-17T09:58:08;5.17;;;2.67;;
35891;SDS011;21993;42.672;23.296;2023-08-17T10:00:34;4.57;;;3.20;;
35891;SDS011;21993;42.672;23.296;2023-08-17T10:03:01;3.47;;;2.83;;
35891;SDS011;21993;42.672;23.296;2023-08-17T10:05:28;4.00;;;2.80;;
35891;SDS011;21993;42.672;23.296;2023-08-17T10:07:57;5.90;;;2.80;;
35891;SDS011;21993;42.672;23.296;2023-08-17T10:10:25;7.40;;;3.10;;
35891;SDS011;21993;42.672;23.296;2023-08-17T10:15:23;6.17;;;2.87;;
35891;SDS011;21993;42.672;23.296;2023-08-17T10:20:57;4.50;;;3.00;;
35891;SDS011;21993;42.672;23.296;2023-08-17T10:23:27;4.77;;;2.50;;
35891;SDS011;21993;42.672;23.296;2023-08-17T10:25:53;4.50;;;2.43;;
35891;SDS011;21993;42.672;23.296;2023-08-17T10:28:19;7.77;;;2.83;;
35891;SDS011;21993;42.672;23.296;2023-08-17T10:30:46;3.70;;;2.43;;
35891;SDS011;21993;42.672;23.296;2023-08-17T10:33:13;4.67;;;2.60;;
35891;SDS011;21993;42.672;23.296;2023-08-17T10:35:39;7.27;;;2.90;;
35891;SDS011;21993;42.672;23.296;2023-08-17T10:38:06;5.23;;;3.00;;
35891;SDS011;21993;42.672;23.296;2023-08-17T10:40:35;2.78;;;2.40;;
35891;SDS011;21993;42.672;23.296;2023-08-17T10:43:02;6.00;;;2.83;;
35891;SDS011;21993;42.672;23.296;2023-08-17T10:45:28;3.17;;;2.70;;
35891;SDS011;21993;42.672;23.296;2023-08-17T10:50:32;4.47;;;2.70;;
35891;SDS011;21993;42.672;23.296;2023-08-17T10:53:03;5.50;;;2.70;;
35891;SDS011;21993;42.672;23.296;2023-08-17T10:55:36;3.15;;;2.42;;
35891;SDS011;21993;42.672;23.296;2023-08-17T10:58:05;2.90;;;2.57;;
35891;SDS011;21993;42.672;23.296;2023-08-17T11:00:36;2.63;;;2.42;;
35891;SDS011;21993;42.672;23.296;2023-08-17T11:03:04;2.45;;;2.25;;
35891;SDS011;21993;42.672;23.296;2023-08-17T11:05:51;4.30;;;2.63;;
35891;SDS011;21993;42.672;23.296;2023-08-17T11:10:56;7.47;;;3.83;;
35891;SDS011;21993;42.672;23.296;2023-08-17T11:13:41;5.00;;;2.63;;
35891;SDS011;21993;42.672;23.296;2023-08-17T11:16:09;6.35;;;2.85;;
35891;SDS011;21993;42.672;23.296;2023-08-17T11:18:36;5.55;;;3.45;;
35891;SDS011;21993;42.672;23.296;2023-08-17T11:21:03;4.30;;;3.20;;
35891;SDS011;21993;42.672;23.296;2023-08-17T11:23:30;4.93;;;3.25;;
35891;SDS011;21993;42.672;23.296;2023-08-17T11:25:57;5.50;;;2.60;;
35891;SDS011;21993;42.672;23.296;2023-08-17T11:28:22;3.22;;;2.92;;
35891;SDS011;21993;42.672;23.296;2023-08-17T11:30:58;5.43;;;2.90;;
35891;SDS011;21993;42.672;23.296;2023-08-17T11:33:25;5.20;;;2.95;;
35891;SDS011;21993;42.672;23.296;2023-08-17T11:35:53;3.40;;;3.00;;
35891;SDS011;21993;42.672;23.296;2023-08-17T11:38:22;3.95;;;3.13;;
35891;SDS011;21993;42.672;23.296;2023-08-17T11:40:48;3.70;;;3.40;;
35891;SDS011;21993;42.672;23.296;2023-08-17T11:43:14;3.80;;;2.75;;
35891;SDS011;21993;42.672;23.296;2023-08-17T11:45:40;4.03;;;3.00;;
35891;SDS011;21993;42.672;23.296;2023-08-17T11:48:06;3.45;;;3.10;;
35891;SDS011;21993;42.672;23.296;2023-08-17T11:50:32;3.05;;;2.75;;
35891;SDS011;21993;42.672;23.296;2023-08-17T11:53:01;3.05;;;2.85;;
35891;SDS011;21993;42.672;23.296;2023-08-17T11:55:27;7.20;;;2.92;;
35891;SDS011;21993;42.672;23.296;2023-08-17T11:57:53;3.88;;;3.40;;
35891;SDS011;21993;42.672;23.296;2023-08-17T12:00:19;3.00;;;2.75;;
35891;SDS011;21993;42.672;23.296;2023-08-17T12:02:47;3.63;;;3.20;;
35891;SDS011;21993;42.672;23.296;2023-08-17T12:05:22;6.18;;;3.10;;
35891;SDS011;21993;42.672;23.296;2023-08-17T12:07:49;5.72;;;2.70;;
35891;SDS011;21993;42.672;23.296;2023-08-17T12:10:15;3.60;;;2.78;;
35891;SDS011;21993;42.672;23.296;2023-08-17T12:12:42;6.25;;;3.30;;
35891;SDS011;21993;42.672;23.296;2023-08-17T12:15:09;4.95;;;3.85;;
35891;SDS011;21993;42.672;23.296;2023-08-17T12:17:37;4.55;;;3.10;;
35891;SDS011;21993;42.672;23.296;2023-08-17T12:20:14;3.20;;;2.83;;
35891;SDS011;21993;42.672;23.296;2023-08-17T12:22:40;6.22;;;3.10;;
35891;SDS011;21993;42.672;23.296;2023-08-17T12:25:06;4.25;;;2.80;;
35891;SDS011;21993;42.672;23.296;2023-08-17T12:27:32;5.40;;;3.42;;
35891;SDS011;21993;42.672;23.296;2023-08-17T12:29:58;3.30;;;3.00;;
35891;SDS011;21993;42.672;23.296;2023-08-17T12:32:23;5.80;;;3.45;;
35891;SDS011;21993;42.672;23.296;2023-08-17T12:34:49;4.85;;;3.50;;
35891;SDS011;21993;42.672;23.296;2023-08-17T12:37:18;3.97;;;3.35;;
35891;SDS011;21993;42.672;23.296;2023-08-17T12:39:45;3.35;;;2.97;;
35891;SDS011;21993;42.672;23.296;2023-08-17T12:42:11;4.32;;;3.65;;
35891;SDS011;21993;42.672;23.296;2023-08-17T12:44:36;4.57;;;3.85;;
35891;SDS011;21993;42.672;23.296;2023-08-17T12:47:02;4.03;;;3.40;;
35891;SDS011;21993;42.672;23.296;2023-08-17T12:49:27;3.33;;;3.08;;
35891;SDS011;21993;42.672;23.296;2023-08-17T12:51:53;9.18;;;4.20;;
35891;SDS011;21993;42.672;23.296;2023-08-17T12:54:18;4.97;;;4.43;;
35891;SDS011;21993;42.672;23.296;2023-08-17T12:56:44;5.50;;;3.90;;
35891;SDS011;21993;42.672;23.296;2023-08-17T12:59:09;8.77;;;4.20;;
35891;SDS011;21993;42.672;23.296;2023-08-17T13:01:35;5.07;;;4.57;;
35891;SDS011;21993;42.672;23.296;2023-08-17T13:04:00;4.85;;;4.25;;
35891;SDS011;21993;42.672;23.296;2023-08-17T13:06:25;5.53;;;4.15;;
35891;SDS011;21993;42.672;23.296;2023-08-17T13:08:51;5.85;;;4.25;;
35891;SDS011;21993;42.672;23.296;2023-08-17T13:11:16;4.67;;;4.20;;
35891;SDS011;21993;42.672;23.296;2023-08-17T13:13:42;4.78;;;4.10;;
35891;SDS011;21993;42.672;23.296;2023-08-17T13:16:07;6.07;;;4.20;;
35891;SDS011;21993;42.672;23.296;2023-08-17T13:18:33;4.55;;;4.15;;
35891;SDS011;21993;42.672;23.296;2023-08-17T13:20:59;6.07;;;4.17;;
35891;SDS011;21993;42.672;23.296;2023-08-17T13:23:24;4.60;;;3.80;;
35891;SDS011;21993;42.672;23.296;2023-08-17T13:25:49;7.60;;;4.47;;
35891;SDS011;21993;42.672;23.296;2023-08-17T13:28:15;4.70;;;4.30;;
35891;SDS011;21993;42.672;23.296;2023-08-17T13:30:40;5.35;;;4.30;;
35891;SDS011;21993;42.672;23.296;2023-08-17T13:33:06;4.17;;;3.77;;
35891;SDS011;21993;42.672;23.296;2023-08-17T13:35:34;4.05;;;3.72;;
35891;SDS011;21993;42.672;23.296;2023-08-17T13:38:00;6.22;;;4.53;;
35891;SDS011;21993;42.672;23.296;2023-08-17T13:40:27;4.88;;;4.25;;
35891;SDS011;21993;42.672;23.296;2023-08-17T13:42:53;4.72;;;4.28;;
35891;SDS011;21993;42.672;23.296;2023-08-17T13:45:18;6.88;;;4.70;;
35891;SDS011;21993;42.672;23.296;2023-08-17T13:47:44;5.43;;;4.32;;
35891;SDS011;21993;42.672;23.296;2023-08-17T13:50:09;5.28;;;4.05;;
35891;SDS011;21993;42.672;23.296;2023-08-17T13:52:35;4.93;;;4.43;;
35891;SDS011;21993;42.672;23.296;2023-08-17T13:55:00;4.38;;;3.90;;
35891;SDS011;21993;42.672;23.296;2023-08-17T13:57:25;5.53;;;4.43;;
35891;SDS011;21993;42.672;23.296;2023-08-17T13:59:51;4.70;;;4.25;;
35891;SDS011;21993;42.672;23.296;2023-08-17T14:02:17;6.80;;;4.23;;
35891;SDS011;21993;42.672;23.296;2023-08-17T14:04:43;5.20;;;3.80;;
35891;SDS011;21993;42.672;23.296;2023-08-17T14:07:08;4.35;;;3.95;;
35891;SDS011;21993;42.672;23.296;2023-08-17T14:09:34;6.43;;;4.25;;
35891;SDS011;21993;42.672;23.296;2023-08-17T14:11:59;5.23;;;4.27;;
35891;SDS011;21993;42.672;23.296;2023-08-17T14:14:26;5.30;;;4.53;;
35891;SDS011;21993;42.672;23.296;2023-08-17T14:16:52;4.17;;;3.77;;
35891;SDS011;21993;42.672;23.296;2023-08-17T14:19:17;5.40;;;4.28;;
35891;SDS011;21993;42.672;23.296;2023-08-17T14:21:42;4.88;;;4.18;;
35891;SDS011;21993;42.672;23.296;2023-08-17T14:24:08;5.77;;;4.23;;
35891;SDS011;21993;42.672;23.296;2023-08-17T14:26:33;7.37;;;3.80;;
35891;SDS011;21993;42.672;23.296;2023-08-17T14:28:59;5.73;;;3.80;;
35891;SDS011;21993;42.672;23.296;2023-08-17T14:31:24;5.25;;;4.18;;
35891;SDS011;21993;42.672;23.296;2023-08-17T14:33:50;7.78;;;3.90;;
35891;SDS011;21993;42.672;23.296;2023-08-17T14:36:15;4.40;;;4.00;;
35891;SDS011;21993;42.672;23.296;2023-08-17T14:38:41;4.07;;;3.67;;
35891;SDS011;21993;42.672;23.296;2023-08-17T14:41:07;4.97;;;4.17;;
35891;SDS011;21993;42.672;23.296;2023-08-17T14:43:33;4.37;;;3.90;;